createdAt,value
2022-08-14T00:06:40.726Z,99884.84
2022-08-14T00:16:45.021Z,99884.56
2022-08-14T00:26:46.624Z,99877.03
2022-08-14T00:36:53.975Z,99869.81
2022-08-14T00:46:57.629Z,99873.66
2022-08-14T00:57:00.323Z,99861.84
2022-08-14T01:07:04.992Z,99830.94
2022-08-14T01:17:09.575Z,99829.78
2022-08-14T01:27:13.177Z,99831.78
2022-08-14T01:37:16.477Z,99836.84
2022-08-14T01:47:21.599Z,99834.94
2022-08-14T01:57:24.018Z,99807.00
2022-08-14T02:07:34.503Z,99818.72
2022-08-14T02:17:46.625Z,99797.94
2022-08-14T02:28:23.366Z,99789.91
2022-08-14T02:38:29.523Z,99782.50
2022-08-14T02:49:05.568Z,99780.00
2022-08-14T02:59:00.239Z,99771.56
2022-08-14T03:09:01.851Z,99780.25
2022-08-14T03:19:03.193Z,99764.53
2022-08-14T03:29:05.562Z,99762.06
2022-08-14T03:39:22.728Z,99756.47
2022-08-14T03:49:29.227Z,99751.44
2022-08-14T03:59:31.532Z,99747.84
2022-08-14T04:09:34.158Z,99738.94
2022-08-14T04:19:36.426Z,99750.22
2022-08-14T04:29:38.383Z,99743.00
2022-08-14T04:39:58.841Z,99753.56
2022-08-14T04:50:00.351Z,99756.69
2022-08-14T05:00:06.313Z,99757.34
2022-08-14T05:10:13.178Z,99744.03
2022-08-14T05:21:04.782Z,99751.53
2022-08-14T05:30:39.073Z,99753.59
2022-08-14T05:40:40.411Z,99747.47
2022-08-14T05:50:42.176Z,99743.09
2022-08-14T06:00:43.496Z,99735.25
2022-08-14T06:10:45.083Z,99711.03
2022-08-14T06:20:46.455Z,99697.34
2022-08-14T06:30:47.847Z,99684.34
2022-08-14T06:40:49.315Z,99686.91
2022-08-14T06:50:52.299Z,99678.56
2022-08-14T07:01:12.490Z,99653.13
2022-08-14T07:11:13.978Z,99660.31
2022-08-14T07:21:16.135Z,99669.56
2022-08-14T07:31:17.622Z,99672.06
2022-08-14T07:41:19.478Z,99643.16
2022-08-14T07:51:20.855Z,99643.03
2022-08-14T08:01:23.549Z,99647.94
2022-08-14T08:11:25.182Z,99648.78
2022-08-14T08:21:33.162Z,99631.38
2022-08-14T08:31:36.846Z,99634.13
2022-08-14T08:41:38.220Z,99633.03
2022-08-14T08:51:43.198Z,99617.34
2022-08-14T09:01:45.035Z,99615.84
2022-08-14T09:11:46.427Z,99604.53
2022-08-14T09:21:49.523Z,99602.06
2022-08-14T09:31:57.707Z,99607.75
2022-08-14T09:42:20.101Z,99581.81
2022-08-14T09:52:32.879Z,99546.78
2022-08-14T10:02:35.654Z,99535.44
2022-08-14T10:12:36.982Z,99513.13
2022-08-14T10:23:13.646Z,99501.22
2022-08-14T10:33:00.203Z,99472.56
2022-08-14T10:43:02.739Z,99454.22
2022-08-14T10:53:07.900Z,99440.13
2022-08-14T11:03:11.050Z,99415.50
2022-08-14T11:13:12.904Z,99420.88
2022-08-14T11:23:16.954Z,99425.25
2022-08-14T11:33:18.368Z,99426.59
2022-08-14T11:43:22.713Z,99403.28
2022-08-14T11:53:31.423Z,99386.94
2022-08-14T12:03:46.514Z,99373.88
2022-08-14T12:13:55.915Z,99366.44
2022-08-14T12:23:57.600Z,99346.81
2022-08-14T12:34:03.676Z,99329.63
2022-08-14T12:44:15.997Z,99314.84
2022-08-14T12:54:28.107Z,99293.31
2022-08-14T13:04:31.403Z,99276.22
2022-08-14T13:14:36.840Z,99267.41
2022-08-14T13:24:38.685Z,99256.69
2022-08-14T13:34:41.191Z,99243.34
2022-08-14T13:44:43.189Z,99236.34
2022-08-14T13:54:46.624Z,99226.75
2022-08-14T14:04:56.338Z,99224.91
2022-08-14T14:14:57.581Z,99213.84
2022-08-14T14:25:06.182Z,99206.34
2022-08-14T14:35:07.582Z,99194.94
2022-08-14T14:45:08.986Z,99183.81
2022-08-14T14:55:12.417Z,99178.94
2022-08-14T15:05:15.330Z,99180.00
2022-08-14T15:15:17.545Z,99182.50
2022-08-14T15:25:18.961Z,99183.94
2022-08-14T15:35:22.344Z,99176.06
2022-08-14T15:45:23.984Z,99183.94
2022-08-14T15:55:26.079Z,99189.63
2022-08-14T16:05:27.618Z,99177.78
2022-08-14T16:15:53.015Z,99185.53
2022-08-14T16:25:56.049Z,99177.31
2022-08-14T16:35:59.889Z,99178.22
2022-08-14T16:46:02.166Z,99166.31
2022-08-14T16:56:04.629Z,99168.66
2022-08-14T17:06:25.799Z,99159.97
2022-08-14T17:16:28.932Z,99151.78
2022-08-14T17:26:32.283Z,99148.47
2022-08-14T17:36:33.731Z,99142.31
2022-08-14T17:46:36.225Z,99163.50
2022-08-14T17:56:38.900Z,99175.63
2022-08-14T18:06:58.497Z,99178.03
2022-08-14T18:17:02.170Z,99178.66
2022-08-14T18:27:09.026Z,99197.78
2022-08-14T18:37:17.719Z,99204.03
2022-08-14T18:47:20.359Z,99206.72
2022-08-14T18:57:22.005Z,99213.28
2022-08-14T19:07:24.421Z,99214.66
2022-08-14T19:17:25.687Z,99224.88
2022-08-14T19:27:37.591Z,99232.13
2022-08-14T19:37:54.810Z,99237.41
2022-08-14T19:47:57.856Z,99248.50
2022-08-14T19:57:59.521Z,99262.34
2022-08-14T20:10:58.425Z,99266.47
2022-08-14T20:18:48.736Z,99266.66
2022-08-14T20:28:51.281Z,99258.78
2022-08-14T20:38:53.940Z,99265.31
2022-08-14T20:48:56.657Z,99254.78
2022-08-14T20:58:58.004Z,99262.25
2022-08-14T21:08:59.366Z,99268.91
2022-08-14T21:19:02.034Z,99281.78
2022-08-14T21:29:03.663Z,99289.56
2022-08-14T21:39:06.584Z,99292.81
2022-08-14T21:49:09.588Z,99310.97
2022-08-14T21:59:18.000Z,99317.34
2022-08-14T22:09:21.720Z,99317.03
2022-08-14T22:19:23.864Z,99317.88
2022-08-14T22:29:44.946Z,99320.53
2022-08-14T22:40:54.683Z,99308.41
2022-08-14T22:50:31.671Z,99305.41
2022-08-14T23:00:35.132Z,99305.69
2022-08-14T23:10:37.957Z,99311.00
2022-08-14T23:20:40.266Z,99309.03
2022-08-14T23:30:42.755Z,99334.78
2022-08-14T23:40:50.507Z,99335.44
2022-08-14T23:50:52.438Z,99322.56
